• Join FlightAware (Why Join?)
  • Login
  • US Flag 
05:43AM EST


 

Airport Tracker/Info


-or-


 

Live Flight TrackerFlight Track Log ✈ UAL4305 ✈ 14-Apr-2013 ✈ KCRP - KIAH

Flight Track Log - Related Links

Times and Time Zones

All times are in EDT time to prevent confusion due to time zone crossing. See the UAL4305 flight status page for this flight to view local times or setup timezone preferences in your user account.

Time Position Orientation Groundspeed Altitude Reporting Facility
EDT Latitude Longitude Course Direction KTS MPH feet Rate Location/Type
08:21AM 27.7436 -97.4758 41° Northeast 155 178 1,700  Level Houston Center
08:22AM 27.7214 -97.4269 117° Southeast 205 236 3,600 1,920 Climbing Houston Center
08:22AM 27.7678 -97.3867 38° Northeast 269 310 5,200 2,100 Climbing Houston Center
08:23AM 27.8403 -97.3583 19° North 274 315 7,600 2,340 Climbing Houston Center
08:24AM 27.9510 -97.3892 35° Northeast  Level FlightAware Approximate
08:24AM 27.9136 -97.3283 20° North 278 320 10,000  Level Houston Center
08:25AM 28.0018 -97.3482 41° Northeast  Level FlightAware Approximate
08:25AM 27.9975 -97.2989 17° North 293 337 11,300  Level Houston Center
08:26AM 28.0486 -97.3015 41° Northeast  Level FlightAware Approximate
08:26AM 28.0817 -97.2631 21° North 317 365 13,800  Level Houston Center
08:28AM 28.1617 -97.2086 31° Northeast 333 383 15,500 1,500 Climbing Houston Center
08:29AM 28.2397 -97.1392 38° Northeast 354 407 16,900 660 Climbing Houston Center
08:30AM 28.3175 -97.0675 39° Northeast 360 414 16,900  Level Houston Center
08:31AM 28.4003 -97.0253 24° Northeast 346 398 17,000  Climbing Houston Center
08:32AM 28.4886 -97.0347 355° North 326 375 16,900  Descending Houston Center
08:33AM 28.5794 -97.0469 353° North 326 375 17,000  Climbing Houston Center
08:34AM 28.6706 -97.0606 353° North 329 379 16,900 -60 Descending Houston Center
08:35AM 28.7797 -97.0786 352° North 329 379 16,900  Level Houston Center
08:36AM 28.8694 -97.0942 351° North 325 374 17,000  Climbing Houston Center
08:37AM 28.9558 -97.1119 350° North 318 366 16,900  Descending Houston Center
08:38AM 29.0425 -97.0928 11° North 338 389 17,000  Climbing Houston Center
08:39AM 29.1025 -96.9892 56° Northeast 395 455 17,000 -60 Level Houston Center
08:40AM 29.1633 -96.8769 58° Northeast 417 480 16,900 -60 Descending Houston Center
08:41AM 29.2233 -96.7644 59° Northeast 423 487 16,900  Level Houston Center
08:42AM 29.2847 -96.6517 58° Northeast 426 490 16,900 -480 Level Houston Center
08:43AM 29.3467 -96.5383 58° Northeast 425 489 16,000 -1,200 Descending Houston Center
08:43AM 29.3789 -96.4775 59° Northeast 425 489 15,300 -1,620 Descending Houston Center
08:44AM 29.4081 -96.4242 58° Northeast 420 483 14,600 -1,560 Descending Houston Center
08:45AM 29.4622 -96.3222 59° Northeast 405 466 13,100 -1,320 Descending Houston Center
08:46AM 29.5236 -96.2050 59° Northeast 361 415 12,000 -660 Descending Houston Center
08:47AM 29.5761 -96.1056 59° Northeast 361 415 11,700 -660 Descending Houston Center
08:48AM 29.6281 -96.0036 60° Northeast 354 407 10,700 -840 Descending Houston Center
08:49AM 29.6744 -95.9094 60° Northeast 327 376 10,100 -600 Descending Houston Center
08:50AM 29.7192 -95.8225 59° Northeast 315 362 9,600 -1,080 Descending Houston Center
08:51AM 29.7639 -95.7333 60° Northeast 308 354 8,000 -1,500 Descending Houston Center
08:52AM 29.8050 -95.6539 59° Northeast 285 328 6,600 -960 Descending Houston Center
08:53AM 29.8439 -95.5722 61° Northeast 280 322 6,100 -300 Descending Houston Center
08:54AM 29.8831 -95.4928 60° Northeast 287 330 6,000 -60 Descending Houston Center
08:55AM 29.8964 -95.4092 80° East 252 290 6,000  Level Houston Center
08:56AM 29.8964 -95.3203 90° East 248 285 6,100  Climbing Houston Center
08:57AM 29.8961 -95.2456 90° East 250 288 6,100 -300 Level Houston Center
08:58AM 29.8969 -95.1658 89° East 249 287 5,600 -780 Descending Houston Center
08:59AM 29.8958 -95.0864 91° East 248 285 4,600 -1,140 Descending Houston Center
09:00AM 29.8964 -95.0019 90° East 252 290 3,400 -840 Descending Houston Center
09:01AM 29.8972 -94.9222 89° East 238 274 3,000 -240 Descending Houston Center
09:02AM 29.9494 -94.8964 23° Northeast 226 260 3,000  Level Houston Center
09:03AM 29.9761 -94.9558 297° West 210 242 3,000  Level Houston Center
09:04AM 29.9767 -95.0281 271° West 214 246 3,000  Level Houston Center
09:05AM 29.9761 -95.0908 269° West 191 220 3,000 -180 Level Houston Center
09:06AM 29.9775 -95.1511 272° West 185 213 2,700 -600 Descending Houston Center
09:07AM 29.9786 -95.2089 271° West 178 205 1,800 -900 Descending Houston Center